sensor_id;sensor_type;location;lat;lon;timestamp;P1;durP1;ratioP1;P2;durP2;ratioP2
33475;SDS011;19814;48.224;11.422;2023-06-14T00:00:58;7.40;;;2.80;;
33475;SDS011;19814;48.224;11.422;2023-06-14T00:03:26;6.30;;;2.90;;
33475;SDS011;19814;48.224;11.422;2023-06-14T00:05:52;10.63;;;2.65;;
33475;SDS011;19814;48.224;11.422;2023-06-14T00:08:17;8.10;;;3.03;;
33475;SDS011;19814;48.224;11.422;2023-06-14T00:10:44;5.45;;;2.65;;
33475;SDS011;19814;48.224;11.422;2023-06-14T00:13:09;6.35;;;2.58;;
33475;SDS011;19814;48.224;11.422;2023-06-14T00:15:36;4.28;;;2.30;;
33475;SDS011;19814;48.224;11.422;2023-06-14T00:18:01;9.10;;;2.67;;
33475;SDS011;19814;48.224;11.422;2023-06-14T00:20:27;4.65;;;2.33;;
33475;SDS011;19814;48.224;11.422;2023-06-14T00:22:55;5.22;;;2.63;;
33475;SDS011;19814;48.224;11.422;2023-06-14T00:25:24;5.50;;;2.70;;
33475;SDS011;19814;48.224;11.422;2023-06-14T00:27:50;5.90;;;2.67;;
33475;SDS011;19814;48.224;11.422;2023-06-14T00:30:16;5.13;;;2.53;;
33475;SDS011;19814;48.224;11.422;2023-06-14T00:32:42;6.30;;;2.53;;
33475;SDS011;19814;48.224;11.422;2023-06-14T00:35:08;8.50;;;2.58;;
33475;SDS011;19814;48.224;11.422;2023-06-14T00:37:34;4.95;;;2.47;;
33475;SDS011;19814;48.224;11.422;2023-06-14T00:40:00;5.72;;;2.83;;
33475;SDS011;19814;48.224;11.422;2023-06-14T00:42:26;6.28;;;2.70;;
33475;SDS011;19814;48.224;11.422;2023-06-14T00:44:52;5.07;;;2.67;;
33475;SDS011;19814;48.224;11.422;2023-06-14T00:47:19;5.00;;;2.60;;
33475;SDS011;19814;48.224;11.422;2023-06-14T00:49:49;4.47;;;2.53;;
33475;SDS011;19814;48.224;11.422;2023-06-14T00:52:16;7.32;;;2.30;;
33475;SDS011;19814;48.224;11.422;2023-06-14T00:54:42;5.57;;;2.85;;
33475;SDS011;19814;48.224;11.422;2023-06-14T00:57:09;6.40;;;2.50;;
33475;SDS011;19814;48.224;11.422;2023-06-14T00:59:41;5.70;;;2.75;;
33475;SDS011;19814;48.224;11.422;2023-06-14T01:02:07;4.95;;;2.47;;
33475;SDS011;19814;48.224;11.422;2023-06-14T01:04:35;5.53;;;2.50;;
33475;SDS011;19814;48.224;11.422;2023-06-14T01:07:03;5.95;;;2.65;;
33475;SDS011;19814;48.224;11.422;2023-06-14T01:09:48;6.45;;;2.35;;
33475;SDS011;19814;48.224;11.422;2023-06-14T01:12:52;9.48;;;3.00;;
33475;SDS011;19814;48.224;11.422;2023-06-14T01:15:35;5.57;;;2.67;;
33475;SDS011;19814;48.224;11.422;2023-06-14T01:18:05;6.65;;;2.90;;
33475;SDS011;19814;48.224;11.422;2023-06-14T01:20:32;4.80;;;2.38;;
33475;SDS011;19814;48.224;11.422;2023-06-14T01:23:01;6.25;;;2.90;;
33475;SDS011;19814;48.224;11.422;2023-06-14T01:25:27;5.88;;;2.55;;
33475;SDS011;19814;48.224;11.422;2023-06-14T01:27:55;6.80;;;2.42;;
33475;SDS011;19814;48.224;11.422;2023-06-14T01:30:24;5.95;;;3.00;;
33475;SDS011;19814;48.224;11.422;2023-06-14T01:32:51;4.78;;;2.60;;
33475;SDS011;19814;48.224;11.422;2023-06-14T01:35:19;6.20;;;2.63;;
33475;SDS011;19814;48.224;11.422;2023-06-14T01:37:46;5.25;;;2.75;;
33475;SDS011;19814;48.224;11.422;2023-06-14T01:40:13;4.78;;;2.78;;
33475;SDS011;19814;48.224;11.422;2023-06-14T01:42:40;6.85;;;3.00;;
33475;SDS011;19814;48.224;11.422;2023-06-14T01:45:07;6.55;;;2.65;;
33475;SDS011;19814;48.224;11.422;2023-06-14T01:47:33;5.55;;;2.47;;
33475;SDS011;19814;48.224;11.422;2023-06-14T01:50:01;6.00;;;2.95;;
33475;SDS011;19814;48.224;11.422;2023-06-14T01:52:30;7.87;;;3.23;;
33475;SDS011;19814;48.224;11.422;2023-06-14T01:54:56;7.60;;;3.20;;
33475;SDS011;19814;48.224;11.422;2023-06-14T01:57:23;4.97;;;2.45;;
33475;SDS011;19814;48.224;11.422;2023-06-14T01:59:50;5.07;;;2.30;;
33475;SDS011;19814;48.224;11.422;2023-06-14T02:02:15;5.00;;;2.60;;
33475;SDS011;19814;48.224;11.422;2023-06-14T02:04:41;5.25;;;3.13;;
33475;SDS011;19814;48.224;11.422;2023-06-14T02:07:07;4.88;;;2.30;;
33475;SDS011;19814;48.224;11.422;2023-06-14T02:09:35;5.18;;;2.72;;
33475;SDS011;19814;48.224;11.422;2023-06-14T02:12:01;5.72;;;3.13;;
33475;SDS011;19814;48.224;11.422;2023-06-14T02:14:27;7.47;;;3.13;;
33475;SDS011;19814;48.224;11.422;2023-06-14T02:16:52;4.68;;;2.70;;
33475;SDS011;19814;48.224;11.422;2023-06-14T02:19:18;5.40;;;2.90;;
33475;SDS011;19814;48.224;11.422;2023-06-14T02:21:46;5.90;;;3.13;;
33475;SDS011;19814;48.224;11.422;2023-06-14T02:24:12;5.35;;;2.67;;
33475;SDS011;19814;48.224;11.422;2023-06-14T02:26:38;5.20;;;2.63;;
33475;SDS011;19814;48.224;11.422;2023-06-14T02:29:04;5.45;;;3.17;;
33475;SDS011;19814;48.224;11.422;2023-06-14T02:31:30;5.53;;;2.95;;
33475;SDS011;19814;48.224;11.422;2023-06-14T02:33:56;6.32;;;3.10;;
33475;SDS011;19814;48.224;11.422;2023-06-14T02:36:22;6.30;;;2.90;;
33475;SDS011;19814;48.224;11.422;2023-06-14T02:38:47;5.20;;;3.10;;
33475;SDS011;19814;48.224;11.422;2023-06-14T02:41:13;9.13;;;3.40;;
33475;SDS011;19814;48.224;11.422;2023-06-14T02:43:38;7.82;;;3.42;;
33475;SDS011;19814;48.224;11.422;2023-06-14T02:46:04;6.85;;;3.20;;
33475;SDS011;19814;48.224;11.422;2023-06-14T02:48:30;5.53;;;3.03;;
33475;SDS011;19814;48.224;11.422;2023-06-14T02:50:55;6.97;;;2.80;;
33475;SDS011;19814;48.224;11.422;2023-06-14T02:53:21;5.25;;;3.05;;
33475;SDS011;19814;48.224;11.422;2023-06-14T02:55:47;5.40;;;3.03;;
33475;SDS011;19814;48.224;11.422;2023-06-14T02:58:13;5.43;;;2.90;;
33475;SDS011;19814;48.224;11.422;2023-06-14T03:00:39;6.05;;;2.78;;
33475;SDS011;19814;48.224;11.422;2023-06-14T03:03:06;6.43;;;2.92;;
33475;SDS011;19814;48.224;11.422;2023-06-14T03:05:43;6.15;;;3.55;;
33475;SDS011;19814;48.224;11.422;2023-06-14T03:08:17;6.32;;;3.13;;
33475;SDS011;19814;48.224;11.422;2023-06-14T03:10:47;7.35;;;2.90;;
33475;SDS011;19814;48.224;11.422;2023-06-14T03:13:13;5.72;;;3.08;;
33475;SDS011;19814;48.224;11.422;2023-06-14T03:15:40;6.38;;;3.03;;
33475;SDS011;19814;48.224;11.422;2023-06-14T03:18:07;8.82;;;3.35;;
33475;SDS011;19814;48.224;11.422;2023-06-14T03:20:34;6.38;;;3.30;;
33475;SDS011;19814;48.224;11.422;2023-06-14T03:23:01;5.38;;;2.97;;
33475;SDS011;19814;48.224;11.422;2023-06-14T03:25:27;6.05;;;3.25;;
33475;SDS011;19814;48.224;11.422;2023-06-14T03:27:54;6.55;;;3.42;;
33475;SDS011;19814;48.224;11.422;2023-06-14T03:30:20;5.63;;;3.00;;
33475;SDS011;19814;48.224;11.422;2023-06-14T03:32:46;7.30;;;2.92;;
33475;SDS011;19814;48.224;11.422;2023-06-14T03:35:12;6.10;;;2.85;;
33475;SDS011;19814;48.224;11.422;2023-06-14T03:37:42;5.97;;;3.22;;
33475;SDS011;19814;48.224;11.422;2023-06-14T03:40:11;5.40;;;2.83;;
33475;SDS011;19814;48.224;11.422;2023-06-14T03:42:38;5.65;;;3.28;;
33475;SDS011;19814;48.224;11.422;2023-06-14T03:45:04;9.02;;;3.38;;
33475;SDS011;19814;48.224;11.422;2023-06-14T03:47:31;5.35;;;3.10;;
33475;SDS011;19814;48.224;11.422;2023-06-14T03:49:56;8.68;;;3.25;;
33475;SDS011;19814;48.224;11.422;2023-06-14T03:52:22;6.55;;;3.53;;
33475;SDS011;19814;48.224;11.422;2023-06-14T03:54:48;6.53;;;3.50;;
33475;SDS011;19814;48.224;11.422;2023-06-14T03:57:14;7.75;;;3.40;;
33475;SDS011;19814;48.224;11.422;2023-06-14T03:59:40;7.40;;;3.55;;
33475;SDS011;19814;48.224;11.422;2023-06-14T04:02:06;8.25;;;3.75;;
33475;SDS011;19814;48.224;11.422;2023-06-14T04:04:32;8.10;;;3.17;;
33475;SDS011;19814;48.224;11.422;2023-06-14T04:06:58;8.13;;;3.13;;
33475;SDS011;19814;48.224;11.422;2023-06-14T04:09:25;5.85;;;3.20;;
33475;SDS011;19814;48.224;11.422;2023-06-14T04:11:54;7.60;;;3.10;;
33475;SDS011;19814;48.224;11.422;2023-06-14T04:14:21;5.45;;;3.08;;
33475;SDS011;19814;48.224;11.422;2023-06-14T04:16:47;6.13;;;3.25;;
33475;SDS011;19814;48.224;11.422;2023-06-14T04:19:13;7.70;;;3.45;;
33475;SDS011;19814;48.224;11.422;2023-06-14T04:21:39;7.28;;;3.90;;
33475;SDS011;19814;48.224;11.422;2023-06-14T04:24:05;7.07;;;3.63;;
33475;SDS011;19814;48.224;11.422;2023-06-14T04:26:31;6.50;;;3.67;;
33475;SDS011;19814;48.224;11.422;2023-06-14T04:28:58;10.20;;;4.15;;
33475;SDS011;19814;48.224;11.422;2023-06-14T04:31:27;8.95;;;3.97;;
33475;SDS011;19814;48.224;11.422;2023-06-14T04:33:58;7.70;;;3.45;;
33475;SDS011;19814;48.224;11.422;2023-06-14T04:36:24;6.82;;;4.05;;
33475;SDS011;19814;48.224;11.422;2023-06-14T04:38:51;10.60;;;4.03;;
33475;SDS011;19814;48.224;11.422;2023-06-14T04:41:19;7.75;;;4.25;;
33475;SDS011;19814;48.224;11.422;2023-06-14T04:43:53;10.95;;;3.95;;
33475;SDS011;19814;48.224;11.422;2023-06-14T04:46:19;11.18;;;3.92;;
33475;SDS011;19814;48.224;11.422;2023-06-14T04:48:45;7.90;;;3.95;;
33475;SDS011;19814;48.224;11.422;2023-06-14T04:51:12;7.60;;;4.05;;
33475;SDS011;19814;48.224;11.422;2023-06-14T04:53:38;7.30;;;3.78;;
33475;SDS011;19814;48.224;11.422;2023-06-14T04:56:04;7.22;;;4.28;;
33475;SDS011;19814;48.224;11.422;2023-06-14T04:58:29;7.45;;;4.05;;
33475;SDS011;19814;48.224;11.422;2023-06-14T05:00:55;7.50;;;4.40;;
33475;SDS011;19814;48.224;11.422;2023-06-14T05:03:21;6.68;;;3.58;;
33475;SDS011;19814;48.224;11.422;2023-06-14T05:05:48;6.15;;;3.60;;
33475;SDS011;19814;48.224;11.422;2023-06-14T05:08:15;7.40;;;3.85;;
33475;SDS011;19814;48.224;11.422;2023-06-14T05:10:41;8.90;;;4.07;;
33475;SDS011;19814;48.224;11.422;2023-06-14T05:13:06;7.00;;;3.75;;
33475;SDS011;19814;48.224;11.422;2023-06-14T05:15:32;9.27;;;4.38;;
33475;SDS011;19814;48.224;11.422;2023-06-14T05:17:59;9.18;;;3.90;;
33475;SDS011;19814;48.224;11.422;2023-06-14T05:20:24;11.43;;;4.47;;
33475;SDS011;19814;48.224;11.422;2023-06-14T05:22:52;6.15;;;3.60;;
33475;SDS011;19814;48.224;11.422;2023-06-14T05:25:19;10.43;;;3.67;;
33475;SDS011;19814;48.224;11.422;2023-06-14T05:27:45;8.63;;;3.50;;
33475;SDS011;19814;48.224;11.422;2023-06-14T05:30:14;7.63;;;3.15;;
33475;SDS011;19814;48.224;11.422;2023-06-14T05:35:58;7.63;;;3.65;;
33475;SDS011;19814;48.224;11.422;2023-06-14T05:38:24;7.30;;;3.47;;
33475;SDS011;19814;48.224;11.422;2023-06-14T05:40:50;8.57;;;4.25;;
33475;SDS011;19814;48.224;11.422;2023-06-14T05:43:16;9.35;;;3.42;;
33475;SDS011;19814;48.224;11.422;2023-06-14T05:45:41;7.53;;;3.40;;
33475;SDS011;19814;48.224;11.422;2023-06-14T05:48:07;6.72;;;3.80;;
33475;SDS011;19814;48.224;11.422;2023-06-14T05:50:32;6.30;;;3.78;;
33475;SDS011;19814;48.224;11.422;2023-06-14T05:52:58;6.20;;;3.80;;
33475;SDS011;19814;48.224;11.422;2023-06-14T05:55:24;6.47;;;3.25;;
33475;SDS011;19814;48.224;11.422;2023-06-14T05:57:52;5.88;;;3.33;;
33475;SDS011;19814;48.224;11.422;2023-06-14T06:00:18;7.70;;;3.40;;
33475;SDS011;19814;48.224;11.422;2023-06-14T06:02:45;5.90;;;2.97;;
33475;SDS011;19814;48.224;11.422;2023-06-14T06:05:11;8.13;;;3.13;;
33475;SDS011;19814;48.224;11.422;2023-06-14T06:07:37;8.25;;;3.30;;
33475;SDS011;19814;48.224;11.422;2023-06-14T06:10:05;6.20;;;3.33;;
33475;SDS011;19814;48.224;11.422;2023-06-14T06:12:31;6.78;;;3.13;;
33475;SDS011;19814;48.224;11.422;2023-06-14T06:14:57;7.95;;;3.45;;
33475;SDS011;19814;48.224;11.422;2023-06-14T06:17:24;9.00;;;3.20;;
33475;SDS011;19814;48.224;11.422;2023-06-14T06:19:50;5.68;;;3.33;;
33475;SDS011;19814;48.224;11.422;2023-06-14T06:22:15;6.50;;;3.30;;
33475;SDS011;19814;48.224;11.422;2023-06-14T06:24:42;7.38;;;2.80;;
33475;SDS011;19814;48.224;11.422;2023-06-14T06:27:07;4.75;;;3.22;;
33475;SDS011;19814;48.224;11.422;2023-06-14T06:29:33;6.18;;;3.00;;
33475;SDS011;19814;48.224;11.422;2023-06-14T06:31:59;4.82;;;2.90;;
33475;SDS011;19814;48.224;11.422;2023-06-14T06:34:25;5.78;;;2.85;;
33475;SDS011;19814;48.224;11.422;2023-06-14T06:36:51;8.57;;;2.88;;
33475;SDS011;19814;48.224;11.422;2023-06-14T06:39:16;5.07;;;2.92;;
33475;SDS011;19814;48.224;11.422;2023-06-14T06:41:42;6.35;;;2.83;;
33475;SDS011;19814;48.224;11.422;2023-06-14T06:44:07;5.75;;;3.08;;
33475;SDS011;19814;48.224;11.422;2023-06-14T06:46:34;5.53;;;2.97;;
33475;SDS011;19814;48.224;11.422;2023-06-14T06:49:04;7.18;;;2.70;;
33475;SDS011;19814;48.224;11.422;2023-06-14T06:51:30;7.13;;;3.13;;
33475;SDS011;19814;48.224;11.422;2023-06-14T06:53:56;7.40;;;2.58;;
33475;SDS011;19814;48.224;11.422;2023-06-14T06:56:21;4.40;;;2.25;;
33475;SDS011;19814;48.224;11.422;2023-06-14T06:58:51;5.93;;;2.85;;
33475;SDS011;19814;48.224;11.422;2023-06-14T07:01:17;5.05;;;2.40;;
33475;SDS011;19814;48.224;11.422;2023-06-14T07:03:44;5.47;;;2.72;;
33475;SDS011;19814;48.224;11.422;2023-06-14T07:06:10;4.32;;;2.58;;
33475;SDS011;19814;48.224;11.422;2023-06-14T07:08:36;4.25;;;2.47;;
33475;SDS011;19814;48.224;11.422;2023-06-14T07:11:04;6.22;;;2.47;;
33475;SDS011;19814;48.224;11.422;2023-06-14T07:13:30;5.05;;;2.35;;
33475;SDS011;19814;48.224;11.422;2023-06-14T07:15:59;4.97;;;2.45;;
33475;SDS011;19814;48.224;11.422;2023-06-14T07:18:28;4.25;;;2.42;;
33475;SDS011;19814;48.224;11.422;2023-06-14T07:20:53;4.63;;;2.38;;
33475;SDS011;19814;48.224;11.422;2023-06-14T07:23:20;4.55;;;2.53;;
33475;SDS011;19814;48.224;11.422;2023-06-14T07:25:45;7.28;;;2.63;;
33475;SDS011;19814;48.224;11.422;2023-06-14T07:28:11;5.38;;;2.67;;
33475;SDS011;19814;48.224;11.422;2023-06-14T07:30:37;5.32;;;2.80;;
33475;SDS011;19814;48.224;11.422;2023-06-14T07:33:02;9.07;;;2.70;;
33475;SDS011;19814;48.224;11.422;2023-06-14T07:35:28;5.03;;;2.33;;
33475;SDS011;19814;48.224;11.422;2023-06-14T07:37:53;5.60;;;2.53;;
33475;SDS011;19814;48.224;11.422;2023-06-14T07:40:19;7.10;;;2.60;;
33475;SDS011;19814;48.224;11.422;2023-06-14T07:42:45;4.40;;;2.60;;
33475;SDS011;19814;48.224;11.422;2023-06-14T07:45:11;5.45;;;2.40;;
33475;SDS011;19814;48.224;11.422;2023-06-14T07:47:38;7.55;;;2.45;;
33475;SDS011;19814;48.224;11.422;2023-06-14T07:50:04;4.00;;;2.30;;
33475;SDS011;19814;48.224;11.422;2023-06-14T07:52:30;5.57;;;2.33;;
33475;SDS011;19814;48.224;11.422;2023-06-14T07:54:56;6.25;;;2.08;;
33475;SDS011;19814;48.224;11.422;2023-06-14T07:57:21;3.58;;;2.22;;
33475;SDS011;19814;48.224;11.422;2023-06-14T07:59:47;5.28;;;2.40;;
33475;SDS011;19814;48.224;11.422;2023-06-14T08:02:13;3.85;;;2.15;;
33475;SDS011;19814;48.224;11.422;2023-06-14T08:04:39;4.72;;;2.33;;
33475;SDS011;19814;48.224;11.422;2023-06-14T08:07:05;3.97;;;2.00;;
33475;SDS011;19814;48.224;11.422;2023-06-14T08:09:31;4.25;;;2.10;;
33475;SDS011;19814;48.224;11.422;2023-06-14T08:11:56;4.72;;;2.20;;
33475;SDS011;19814;48.224;11.422;2023-06-14T08:14:22;5.07;;;2.17;;
33475;SDS011;19814;48.224;11.422;2023-06-14T08:16:48;7.75;;;3.13;;
33475;SDS011;19814;48.224;11.422;2023-06-14T08:19:13;6.75;;;2.15;;
33475;SDS011;19814;48.224;11.422;2023-06-14T08:21:41;6.68;;;2.63;;
33475;SDS011;19814;48.224;11.422;2023-06-14T08:24:08;6.47;;;2.17;;
33475;SDS011;19814;48.224;11.422;2023-06-14T08:26:37;3.90;;;2.25;;
33475;SDS011;19814;48.224;11.422;2023-06-14T08:29:03;4.78;;;1.90;;
33475;SDS011;19814;48.224;11.422;2023-06-14T08:31:29;3.97;;;2.00;;
33475;SDS011;19814;48.224;11.422;2023-06-14T08:33:56;5.18;;;2.05;;
33475;SDS011;19814;48.224;11.422;2023-06-14T08:36:22;3.63;;;1.98;;
33475;SDS011;19814;48.224;11.422;2023-06-14T08:38:47;5.18;;;2.25;;
33475;SDS011;19814;48.224;11.422;2023-06-14T08:41:13;5.13;;;2.00;;
33475;SDS011;19814;48.224;11.422;2023-06-14T08:43:45;3.15;;;1.90;;
33475;SDS011;19814;48.224;11.422;2023-06-14T08:46:11;3.33;;;2.10;;
33475;SDS011;19814;48.224;11.422;2023-06-14T08:48:41;4.47;;;2.42;;
33475;SDS011;19814;48.224;11.422;2023-06-14T08:51:08;3.47;;;2.13;;
33475;SDS011;19814;48.224;11.422;2023-06-14T08:53:35;3.15;;;1.70;;
33475;SDS011;19814;48.224;11.422;2023-06-14T08:56:06;3.60;;;2.10;;
33475;SDS011;19814;48.224;11.422;2023-06-14T08:58:38;3.78;;;1.80;;
33475;SDS011;19814;48.224;11.422;2023-06-14T09:01:09;5.95;;;2.58;;
33475;SDS011;19814;48.224;11.422;2023-06-14T09:03:39;3.47;;;1.80;;
33475;SDS011;19814;48.224;11.422;2023-06-14T09:06:05;5.80;;;2.10;;
33475;SDS011;19814;48.224;11.422;2023-06-14T09:08:33;4.53;;;1.98;;
33475;SDS011;19814;48.224;11.422;2023-06-14T09:11:00;5.65;;;2.42;;
33475;SDS011;19814;48.224;11.422;2023-06-14T09:13:27;6.03;;;2.10;;
33475;SDS011;19814;48.224;11.422;2023-06-14T09:15:52;4.28;;;2.45;;
33475;SDS011;19814;48.224;11.422;2023-06-14T09:18:18;3.33;;;2.10;;
33475;SDS011;19814;48.224;11.422;2023-06-14T09:20:47;10.45;;;2.65;;
33475;SDS011;19814;48.224;11.422;2023-06-14T09:23:13;4.03;;;2.15;;
33475;SDS011;19814;48.224;11.422;2023-06-14T09:25:45;19.20;;;3.10;;
33475;SDS011;19814;48.224;11.422;2023-06-14T09:28:11;4.65;;;2.00;;
33475;SDS011;19814;48.224;11.422;2023-06-14T09:30:37;3.35;;;1.88;;
33475;SDS011;19814;48.224;11.422;2023-06-14T09:33:03;3.33;;;2.20;;
33475;SDS011;19814;48.224;11.422;2023-06-14T09:35:30;3.70;;;1.83;;
33475;SDS011;19814;48.224;11.422;2023-06-14T09:37:56;5.00;;;1.80;;
33475;SDS011;19814;48.224;11.422;2023-06-14T09:40:22;9.43;;;2.17;;
33475;SDS011;19814;48.224;11.422;2023-06-14T09:42:48;3.30;;;1.80;;
33475;SDS011;19814;48.224;11.422;2023-06-14T09:45:15;3.50;;;1.98;;
33475;SDS011;19814;48.224;11.422;2023-06-14T09:47:46;3.10;;;2.05;;
33475;SDS011;19814;48.224;11.422;2023-06-14T09:50:13;3.72;;;1.88;;
33475;SDS011;19814;48.224;11.422;2023-06-14T09:52:39;3.50;;;2.20;;
33475;SDS011;19814;48.224;11.422;2023-06-14T09:55:10;5.35;;;2.47;;
33475;SDS011;19814;48.224;11.422;2023-06-14T09:57:38;5.15;;;2.13;;
33475;SDS011;19814;48.224;11.422;2023-06-14T10:00:07;5.50;;;2.58;;
33475;SDS011;19814;48.224;11.422;2023-06-14T10:02:36;4.85;;;2.67;;
33475;SDS011;19814;48.224;11.422;2023-06-14T10:07:41;4.20;;;2.05;;
33475;SDS011;19814;48.224;11.422;2023-06-14T10:10:09;3.25;;;2.15;;
33475;SDS011;19814;48.224;11.422;2023-06-14T10:12:36;3.45;;;2.13;;
33475;SDS011;19814;48.224;11.422;2023-06-14T10:15:02;3.95;;;2.08;;
33475;SDS011;19814;48.224;11.422;2023-06-14T10:22:50;3.70;;;2.13;;
33475;SDS011;19814;48.224;11.422;2023-06-14T10:25:28;4.35;;;2.22;;
33475;SDS011;19814;48.224;11.422;2023-06-14T10:28:02;4.18;;;2.50;;
33475;SDS011;19814;48.224;11.422;2023-06-14T10:30:28;3.35;;;2.08;;
33475;SDS011;19814;48.224;11.422;2023-06-14T10:33:06;4.45;;;1.83;;
33475;SDS011;19814;48.224;11.422;2023-06-14T10:35:33;3.97;;;1.85;;
33475;SDS011;19814;48.224;11.422;2023-06-14T10:38:09;4.80;;;2.25;;
33475;SDS011;19814;48.224;11.422;2023-06-14T10:40:37;5.97;;;2.30;;
33475;SDS011;19814;48.224;11.422;2023-06-14T10:43:22;5.88;;;2.20;;
33475;SDS011;19814;48.224;11.422;2023-06-14T10:48:41;3.33;;;2.00;;
33475;SDS011;19814;48.224;11.422;2023-06-14T10:51:14;5.70;;;1.90;;
33475;SDS011;19814;48.224;11.422;2023-06-14T10:53:45;4.53;;;2.30;;
33475;SDS011;19814;48.224;11.422;2023-06-14T10:56:26;3.45;;;2.10;;
33475;SDS011;19814;48.224;11.422;2023-06-14T10:58:56;4.75;;;1.95;;
33475;SDS011;19814;48.224;11.422;2023-06-14T11:01:26;6.45;;;2.15;;
33475;SDS011;19814;48.224;11.422;2023-06-14T11:04:06;6.57;;;2.17;;
33475;SDS011;19814;48.224;11.422;2023-06-14T11:06:45;4.40;;;2.38;;
33475;SDS011;19814;48.224;11.422;2023-06-14T11:11:57;4.20;;;2.08;;
33475;SDS011;19814;48.224;11.422;2023-06-14T11:14:24;3.53;;;2.20;;
33475;SDS011;19814;48.224;11.422;2023-06-14T11:16:50;3.85;;;2.20;;
33475;SDS011;19814;48.224;11.422;2023-06-14T11:19:16;3.38;;;1.83;;
33475;SDS011;19814;48.224;11.422;2023-06-14T11:21:46;4.07;;;2.40;;
33475;SDS011;19814;48.224;11.422;2023-06-14T11:24:13;4.35;;;2.05;;
33475;SDS011;19814;48.224;11.422;2023-06-14T11:26:39;5.47;;;2.35;;
33475;SDS011;19814;48.224;11.422;2023-06-14T11:29:05;4.38;;;2.30;;
33475;SDS011;19814;48.224;11.422;2023-06-14T11:31:31;4.85;;;2.17;;
33475;SDS011;19814;48.224;11.422;2023-06-14T11:33:57;4.47;;;2.28;;
33475;SDS011;19814;48.224;11.422;2023-06-14T11:36:30;3.60;;;2.00;;
33475;SDS011;19814;48.224;11.422;2023-06-14T11:39:00;4.10;;;2.30;;
33475;SDS011;19814;48.224;11.422;2023-06-14T11:41:32;3.78;;;1.90;;
33475;SDS011;19814;48.224;11.422;2023-06-14T11:44:02;3.63;;;2.10;;
33475;SDS011;19814;48.224;11.422;2023-06-14T11:46:28;3.20;;;1.98;;
33475;SDS011;19814;48.224;11.422;2023-06-14T11:48:53;3.25;;;2.30;;
33475;SDS011;19814;48.224;11.422;2023-06-14T11:51:20;6.35;;;2.28;;
33475;SDS011;19814;48.224;11.422;2023-06-14T11:53:46;3.35;;;2.28;;
33475;SDS011;19814;48.224;11.422;2023-06-14T11:56:12;5.05;;;2.35;;
33475;SDS011;19814;48.224;11.422;2023-06-14T11:58:38;3.78;;;2.63;;
33475;SDS011;19814;48.224;11.422;2023-06-14T12:01:03;6.22;;;2.50;;
33475;SDS011;19814;48.224;11.422;2023-06-14T12:03:29;4.18;;;2.22;;
33475;SDS011;19814;48.224;11.422;2023-06-14T12:08:33;6.22;;;2.45;;
33475;SDS011;19814;48.224;11.422;2023-06-14T12:11:06;3.90;;;2.30;;
33475;SDS011;19814;48.224;11.422;2023-06-14T12:13:37;8.88;;;2.40;;
33475;SDS011;19814;48.224;11.422;2023-06-14T12:16:04;3.80;;;2.17;;
33475;SDS011;19814;48.224;11.422;2023-06-14T12:18:35;3.58;;;2.33;;
33475;SDS011;19814;48.224;11.422;2023-06-14T12:21:05;3.80;;;2.47;;
33475;SDS011;19814;48.224;11.422;2023-06-14T12:23:44;4.15;;;2.30;;
33475;SDS011;19814;48.224;11.422;2023-06-14T12:26:12;5.35;;;2.22;;
33475;SDS011;19814;48.224;11.422;2023-06-14T12:28:40;5.22;;;2.28;;
33475;SDS011;19814;48.224;11.422;2023-06-14T12:31:07;3.78;;;2.20;;
33475;SDS011;19814;48.224;11.422;2023-06-14T12:33:33;4.50;;;2.10;;
33475;SDS011;19814;48.224;11.422;2023-06-14T12:35:59;4.10;;;2.50;;
33475;SDS011;19814;48.224;11.422;2023-06-14T12:38:24;5.50;;;2.03;;
33475;SDS011;19814;48.224;11.422;2023-06-14T12:40:50;4.78;;;2.30;;
33475;SDS011;19814;48.224;11.422;2023-06-14T12:43:16;3.70;;;2.35;;
33475;SDS011;19814;48.224;11.422;2023-06-14T12:45:41;3.45;;;1.85;;
33475;SDS011;19814;48.224;11.422;2023-06-14T12:48:07;3.78;;;2.55;;
33475;SDS011;19814;48.224;11.422;2023-06-14T12:50:34;3.83;;;2.08;;
33475;SDS011;19814;48.224;11.422;2023-06-14T12:52:59;4.75;;;2.20;;
33475;SDS011;19814;48.224;11.422;2023-06-14T12:55:25;5.72;;;2.42;;
33475;SDS011;19814;48.224;11.422;2023-06-14T12:57:51;6.68;;;2.40;;
33475;SDS011;19814;48.224;11.422;2023-06-14T13:00:16;7.50;;;2.50;;
33475;SDS011;19814;48.224;11.422;2023-06-14T13:02:43;3.40;;;2.40;;
33475;SDS011;19814;48.224;11.422;2023-06-14T13:05:08;3.20;;;2.10;;
33475;SDS011;19814;48.224;11.422;2023-06-14T13:07:34;3.50;;;2.10;;
33475;SDS011;19814;48.224;11.422;2023-06-14T13:10:00;5.13;;;2.60;;
33475;SDS011;19814;48.224;11.422;2023-06-14T13:12:25;3.67;;;2.17;;
33475;SDS011;19814;48.224;11.422;2023-06-14T13:14:51;4.85;;;1.83;;
33475;SDS011;19814;48.224;11.422;2023-06-14T13:17:17;5.20;;;2.05;;
33475;SDS011;19814;48.224;11.422;2023-06-14T13:19:42;4.00;;;2.13;;
33475;SDS011;19814;48.224;11.422;2023-06-14T13:22:08;5.75;;;2.30;;
33475;SDS011;19814;48.224;11.422;2023-06-14T13:24:33;4.75;;;2.28;;
33475;SDS011;19814;48.224;11.422;2023-06-14T13:26:59;3.63;;;2.20;;
33475;SDS011;19814;48.224;11.422;2023-06-14T13:29:25;3.47;;;2.20;;
33475;SDS011;19814;48.224;11.422;2023-06-14T13:31:51;3.63;;;1.95;;
33475;SDS011;19814;48.224;11.422;2023-06-14T13:34:17;4.65;;;2.50;;
33475;SDS011;19814;48.224;11.422;2023-06-14T13:36:43;3.97;;;2.30;;
33475;SDS011;19814;48.224;11.422;2023-06-14T13:39:09;2.70;;;1.90;;
33475;SDS011;19814;48.224;11.422;2023-06-14T13:41:35;3.92;;;2.22;;
33475;SDS011;19814;48.224;11.422;2023-06-14T13:44:01;4.93;;;2.10;;
33475;SDS011;19814;48.224;11.422;2023-06-14T13:46:29;6.50;;;2.67;;
33475;SDS011;19814;48.224;11.422;2023-06-14T13:48:55;3.63;;;2.00;;
33475;SDS011;19814;48.224;11.422;2023-06-14T13:51:23;4.53;;;2.30;;
33475;SDS011;19814;48.224;11.422;2023-06-14T13:53:49;5.22;;;2.40;;
33475;SDS011;19814;48.224;11.422;2023-06-14T13:56:15;4.60;;;2.25;;
33475;SDS011;19814;48.224;11.422;2023-06-14T13:58:42;5.90;;;2.30;;
33475;SDS011;19814;48.224;11.422;2023-06-14T14:01:08;4.63;;;2.45;;
33475;SDS011;19814;48.224;11.422;2023-06-14T14:03:34;4.13;;;2.33;;
33475;SDS011;19814;48.224;11.422;2023-06-14T14:06:03;4.22;;;2.25;;
33475;SDS011;19814;48.224;11.422;2023-06-14T14:08:29;5.40;;;2.53;;
33475;SDS011;19814;48.224;11.422;2023-06-14T14:10:55;4.43;;;2.20;;
33475;SDS011;19814;48.224;11.422;2023-06-14T14:13:21;7.93;;;2.72;;
33475;SDS011;19814;48.224;11.422;2023-06-14T14:15:47;3.08;;;1.92;;
33475;SDS011;19814;48.224;11.422;2023-06-14T14:18:14;3.88;;;2.28;;
33475;SDS011;19814;48.224;11.422;2023-06-14T14:20:40;6.15;;;2.35;;
33475;SDS011;19814;48.224;11.422;2023-06-14T14:23:05;4.45;;;2.22;;
33475;SDS011;19814;48.224;11.422;2023-06-14T14:25:31;4.15;;;2.33;;
33475;SDS011;19814;48.224;11.422;2023-06-14T14:27:57;4.75;;;2.28;;
33475;SDS011;19814;48.224;11.422;2023-06-14T14:30:22;3.15;;;1.80;;
33475;SDS011;19814;48.224;11.422;2023-06-14T14:32:48;4.65;;;1.98;;
33475;SDS011;19814;48.224;11.422;2023-06-14T14:35:16;5.63;;;2.38;;
33475;SDS011;19814;48.224;11.422;2023-06-14T14:37:45;3.28;;;1.90;;
33475;SDS011;19814;48.224;11.422;2023-06-14T14:40:11;5.07;;;2.47;;
33475;SDS011;19814;48.224;11.422;2023-06-14T14:42:37;5.82;;;2.50;;
33475;SDS011;19814;48.224;11.422;2023-06-14T14:45:02;7.00;;;2.30;;
33475;SDS011;19814;48.224;11.422;2023-06-14T14:47:28;4.45;;;2.17;;
33475;SDS011;19814;48.224;11.422;2023-06-14T14:49:54;5.25;;;2.45;;
33475;SDS011;19814;48.224;11.422;2023-06-14T14:52:20;4.25;;;2.50;;